Newarthill, United Kingdom
Current Conditions -  °F | °C
As of 6:20 AM on Saturday 29 Nov 2014 (Local Time) from EGPF Reporting Station
Overcast Overcast  
Wind Chill: 44°   Ceiling: 1400
Heat Index: 48°   Visibility: 6mi
Dew Point: 46°   Wind: 9mph
Humidity: 93%   Direction: 70°ENE
Pressure: 29.83"   Gusts: NA
Location:  55.82°N, 3.94°W
Report Text: EGPF 290620Z AUTO 07008KT 9999 OVC014 09/08 Q1010
Loading
Personal Weather Stations






























Interactive Weather Map New forecast layout! Learn more

10-Day Weather Forecast

Advertisements
Track Severe Weather on mobile